sensor_id;sensor_type;location;lat;lon;timestamp;temperature;humidity
5041;DHT22;2539;52.568;13.364;2022-10-14T00:00:31;9.90;99.90
5041;DHT22;2539;52.568;13.364;2022-10-14T00:02:58;9.90;99.90
5041;DHT22;2539;52.568;13.364;2022-10-14T00:05:24;9.90;99.90
5041;DHT22;2539;52.568;13.364;2022-10-14T00:07:50;9.90;99.90
5041;DHT22;2539;52.568;13.364;2022-10-14T00:10:17;9.80;99.90
5041;DHT22;2539;52.568;13.364;2022-10-14T00:12:43;9.80;99.90
5041;DHT22;2539;52.568;13.364;2022-10-14T00:15:10;9.80;99.90
5041;DHT22;2539;52.568;13.364;2022-10-14T00:17:36;9.70;99.90
5041;DHT22;2539;52.568;13.364;2022-10-14T00:20:03;9.70;99.90
5041;DHT22;2539;52.568;13.364;2022-10-14T00:22:29;9.70;99.90
5041;DHT22;2539;52.568;13.364;2022-10-14T00:24:56;9.60;99.90
5041;DHT22;2539;52.568;13.364;2022-10-14T00:27:22;9.60;99.90
5041;DHT22;2539;52.568;13.364;2022-10-14T00:29:49;9.50;99.90
5041;DHT22;2539;52.568;13.364;2022-10-14T00:32:15;9.50;99.90
5041;DHT22;2539;52.568;13.364;2022-10-14T00:34:42;9.40;99.90
5041;DHT22;2539;52.568;13.364;2022-10-14T00:37:09;9.40;99.90
5041;DHT22;2539;52.568;13.364;2022-10-14T00:39:35;9.30;99.90
5041;DHT22;2539;52.568;13.364;2022-10-14T00:42:02;9.30;99.90
5041;DHT22;2539;52.568;13.364;2022-10-14T00:46:54;9.30;99.90
5041;DHT22;2539;52.568;13.364;2022-10-14T00:49:30;9.20;99.90
5041;DHT22;2539;52.568;13.364;2022-10-14T00:52:05;9.20;99.90
5041;DHT22;2539;52.568;13.364;2022-10-14T00:54:41;9.20;99.90
5041;DHT22;2539;52.568;13.364;2022-10-14T00:57:09;9.30;99.90
5041;DHT22;2539;52.568;13.364;2022-10-14T00:59:35;9.50;99.90
5041;DHT22;2539;52.568;13.364;2022-10-14T01:02:02;9.60;99.90
5041;DHT22;2539;52.568;13.364;2022-10-14T01:04:28;9.70;99.90
5041;DHT22;2539;52.568;13.364;2022-10-14T01:07:10;9.80;99.90
5041;DHT22;2539;52.568;13.364;2022-10-14T01:12:52;9.90;99.90
5041;DHT22;2539;52.568;13.364;2022-10-14T01:15:47;9.90;99.90
5041;DHT22;2539;52.568;13.364;2022-10-14T01:18:32;10.00;99.90
5041;DHT22;2539;52.568;13.364;2022-10-14T01:21:27;9.90;99.90
5041;DHT22;2539;52.568;13.364;2022-10-14T01:29:58;9.70;99.90
5041;DHT22;2539;52.568;13.364;2022-10-14T01:32:31;9.60;99.90
5041;DHT22;2539;52.568;13.364;2022-10-14T01:35:09;9.50;99.90
5041;DHT22;2539;52.568;13.364;2022-10-14T01:37:40;9.40;99.90
5041;DHT22;2539;52.568;13.364;2022-10-14T01:40:16;9.40;99.90
5041;DHT22;2539;52.568;13.364;2022-10-14T01:42:47;9.30;99.90
5041;DHT22;2539;52.568;13.364;2022-10-14T01:45:19;9.30;99.90
5041;DHT22;2539;52.568;13.364;2022-10-14T01:47:48;9.30;99.90
5041;DHT22;2539;52.568;13.364;2022-10-14T01:50:18;9.20;99.90
5041;DHT22;2539;52.568;13.364;2022-10-14T01:52:55;9.20;99.90
5041;DHT22;2539;52.568;13.364;2022-10-14T01:55:26;9.10;99.90
5041;DHT22;2539;52.568;13.364;2022-10-14T01:57:56;9.10;99.90
5041;DHT22;2539;52.568;13.364;2022-10-14T02:00:22;9.10;99.90
5041;DHT22;2539;52.568;13.364;2022-10-14T02:02:49;9.00;99.90
5041;DHT22;2539;52.568;13.364;2022-10-14T02:05:30;9.00;99.90
5041;DHT22;2539;52.568;13.364;2022-10-14T02:08:16;8.90;99.90
5041;DHT22;2539;52.568;13.364;2022-10-14T02:19:23;8.70;99.90
5041;DHT22;2539;52.568;13.364;2022-10-14T02:21:55;8.60;99.90
5041;DHT22;2539;52.568;13.364;2022-10-14T02:24:30;8.60;99.90
5041;DHT22;2539;52.568;13.364;2022-10-14T02:27:00;8.60;99.90
5041;DHT22;2539;52.568;13.364;2022-10-14T02:29:28;8.50;99.90
5041;DHT22;2539;52.568;13.364;2022-10-14T02:31:57;8.50;99.90
5041;DHT22;2539;52.568;13.364;2022-10-14T02:34:24;8.50;99.90
5041;DHT22;2539;52.568;13.364;2022-10-14T02:36:52;8.50;99.90
5041;DHT22;2539;52.568;13.364;2022-10-14T02:39:24;8.50;99.90
5041;DHT22;2539;52.568;13.364;2022-10-14T02:41:53;8.60;99.90
5041;DHT22;2539;52.568;13.364;2022-10-14T02:44:19;8.60;99.90
5041;DHT22;2539;52.568;13.364;2022-10-14T02:46:44;8.60;99.90
5041;DHT22;2539;52.568;13.364;2022-10-14T02:49:10;8.60;99.90
5041;DHT22;2539;52.568;13.364;2022-10-14T02:51:36;8.70;99.90
5041;DHT22;2539;52.568;13.364;2022-10-14T02:54:02;8.80;99.90
5041;DHT22;2539;52.568;13.364;2022-10-14T02:56:29;8.90;99.90
5041;DHT22;2539;52.568;13.364;2022-10-14T02:58:55;9.00;99.90
5041;DHT22;2539;52.568;13.364;2022-10-14T03:01:21;9.10;99.90
5041;DHT22;2539;52.568;13.364;2022-10-14T03:03:48;9.20;99.90
5041;DHT22;2539;52.568;13.364;2022-10-14T03:06:14;9.30;99.90
5041;DHT22;2539;52.568;13.364;2022-10-14T03:08:40;9.30;99.90
5041;DHT22;2539;52.568;13.364;2022-10-14T03:11:06;9.40;99.90
5041;DHT22;2539;52.568;13.364;2022-10-14T03:13:33;9.40;99.90
5041;DHT22;2539;52.568;13.364;2022-10-14T03:15:59;9.40;99.90
5041;DHT22;2539;52.568;13.364;2022-10-14T03:18:25;9.50;99.90
5041;DHT22;2539;52.568;13.364;2022-10-14T03:20:52;9.50;99.90
5041;DHT22;2539;52.568;13.364;2022-10-14T03:23:19;9.60;99.90
5041;DHT22;2539;52.568;13.364;2022-10-14T03:25:45;9.60;99.90
5041;DHT22;2539;52.568;13.364;2022-10-14T03:28:12;9.60;99.90
5041;DHT22;2539;52.568;13.364;2022-10-14T03:30:38;9.60;99.90
5041;DHT22;2539;52.568;13.364;2022-10-14T03:33:05;9.60;99.90
5041;DHT22;2539;52.568;13.364;2022-10-14T03:35:31;9.70;99.90
5041;DHT22;2539;52.568;13.364;2022-10-14T03:37:57;9.60;99.90
5041;DHT22;2539;52.568;13.364;2022-10-14T03:40:27;9.60;99.90
5041;DHT22;2539;52.568;13.364;2022-10-14T03:42:57;9.50;99.90
5041;DHT22;2539;52.568;13.364;2022-10-14T03:45:23;9.50;99.90
5041;DHT22;2539;52.568;13.364;2022-10-14T03:47:49;9.30;99.90
5041;DHT22;2539;52.568;13.364;2022-10-14T03:50:15;9.30;99.90
5041;DHT22;2539;52.568;13.364;2022-10-14T03:52:42;9.20;99.90
5041;DHT22;2539;52.568;13.364;2022-10-14T03:55:08;9.20;99.90
5041;DHT22;2539;52.568;13.364;2022-10-14T03:57:35;9.10;99.90
5041;DHT22;2539;52.568;13.364;2022-10-14T04:00:02;9.10;99.90
5041;DHT22;2539;52.568;13.364;2022-10-14T04:02:29;9.00;99.90
5041;DHT22;2539;52.568;13.364;2022-10-14T04:04:55;8.90;99.90
5041;DHT22;2539;52.568;13.364;2022-10-14T04:07:22;8.90;99.90
5041;DHT22;2539;52.568;13.364;2022-10-14T04:09:48;8.90;99.90
5041;DHT22;2539;52.568;13.364;2022-10-14T04:12:14;8.80;99.90
5041;DHT22;2539;52.568;13.364;2022-10-14T04:14:41;8.70;99.90
5041;DHT22;2539;52.568;13.364;2022-10-14T04:17:07;8.80;99.90
5041;DHT22;2539;52.568;13.364;2022-10-14T04:19:33;8.90;99.90
5041;DHT22;2539;52.568;13.364;2022-10-14T04:21:58;8.90;99.90
5041;DHT22;2539;52.568;13.364;2022-10-14T04:24:24;8.90;99.90
5041;DHT22;2539;52.568;13.364;2022-10-14T04:26:50;8.90;99.90
5041;DHT22;2539;52.568;13.364;2022-10-14T04:29:18;8.80;99.90
5041;DHT22;2539;52.568;13.364;2022-10-14T04:31:44;8.80;99.90
5041;DHT22;2539;52.568;13.364;2022-10-14T04:34:11;8.80;99.90
5041;DHT22;2539;52.568;13.364;2022-10-14T04:36:37;8.80;99.90
5041;DHT22;2539;52.568;13.364;2022-10-14T04:39:04;8.70;99.90
5041;DHT22;2539;52.568;13.364;2022-10-14T04:41:30;8.70;99.90
5041;DHT22;2539;52.568;13.364;2022-10-14T04:43:57;8.80;99.90
5041;DHT22;2539;52.568;13.364;2022-10-14T04:46:23;8.80;99.90
5041;DHT22;2539;52.568;13.364;2022-10-14T04:48:49;8.80;99.90
5041;DHT22;2539;52.568;13.364;2022-10-14T04:51:16;8.80;99.90
5041;DHT22;2539;52.568;13.364;2022-10-14T04:53:42;8.80;99.90
5041;DHT22;2539;52.568;13.364;2022-10-14T04:56:08;8.90;99.90
5041;DHT22;2539;52.568;13.364;2022-10-14T04:58:34;9.00;99.90
5041;DHT22;2539;52.568;13.364;2022-10-14T05:01:01;9.10;99.90
5041;DHT22;2539;52.568;13.364;2022-10-14T05:03:27;9.10;99.90
5041;DHT22;2539;52.568;13.364;2022-10-14T05:05:53;9.20;99.90
5041;DHT22;2539;52.568;13.364;2022-10-14T05:08:20;9.30;99.90
5041;DHT22;2539;52.568;13.364;2022-10-14T05:10:47;9.30;99.90
5041;DHT22;2539;52.568;13.364;2022-10-14T05:13:14;9.40;99.90
5041;DHT22;2539;52.568;13.364;2022-10-14T05:15:40;9.50;99.90
5041;DHT22;2539;52.568;13.364;2022-10-14T05:18:12;9.50;99.90
5041;DHT22;2539;52.568;13.364;2022-10-14T05:20:38;9.50;99.90
5041;DHT22;2539;52.568;13.364;2022-10-14T05:23:05;9.50;99.90
5041;DHT22;2539;52.568;13.364;2022-10-14T05:25:31;9.50;99.90
5041;DHT22;2539;52.568;13.364;2022-10-14T05:27:57;9.50;99.90
5041;DHT22;2539;52.568;13.364;2022-10-14T05:30:24;9.60;99.90
5041;DHT22;2539;52.568;13.364;2022-10-14T05:32:50;9.60;99.90
5041;DHT22;2539;52.568;13.364;2022-10-14T05:35:17;9.70;99.90
5041;DHT22;2539;52.568;13.364;2022-10-14T05:37:43;9.70;99.90
5041;DHT22;2539;52.568;13.364;2022-10-14T05:40:09;9.70;99.90
5041;DHT22;2539;52.568;13.364;2022-10-14T05:42:36;9.70;99.90
5041;DHT22;2539;52.568;13.364;2022-10-14T05:45:04;9.80;99.90
5041;DHT22;2539;52.568;13.364;2022-10-14T05:47:30;9.80;99.90
5041;DHT22;2539;52.568;13.364;2022-10-14T05:49:57;9.80;99.90
5041;DHT22;2539;52.568;13.364;2022-10-14T05:52:24;9.90;99.90
5041;DHT22;2539;52.568;13.364;2022-10-14T05:54:51;9.90;99.90
5041;DHT22;2539;52.568;13.364;2022-10-14T05:57:17;9.90;99.90
5041;DHT22;2539;52.568;13.364;2022-10-14T05:59:43;10.00;99.90
5041;DHT22;2539;52.568;13.364;2022-10-14T06:02:11;10.10;99.90
5041;DHT22;2539;52.568;13.364;2022-10-14T06:04:37;10.20;99.90
5041;DHT22;2539;52.568;13.364;2022-10-14T06:07:06;10.20;99.90
5041;DHT22;2539;52.568;13.364;2022-10-14T06:09:32;10.20;99.90
5041;DHT22;2539;52.568;13.364;2022-10-14T06:11:58;10.30;99.90
5041;DHT22;2539;52.568;13.364;2022-10-14T06:14:24;10.30;99.90
5041;DHT22;2539;52.568;13.364;2022-10-14T06:16:51;10.40;99.90
5041;DHT22;2539;52.568;13.364;2022-10-14T06:19:17;10.40;99.90
5041;DHT22;2539;52.568;13.364;2022-10-14T06:21:43;10.50;99.90
5041;DHT22;2539;52.568;13.364;2022-10-14T06:24:10;10.50;99.90
5041;DHT22;2539;52.568;13.364;2022-10-14T06:26:36;10.60;99.90
5041;DHT22;2539;52.568;13.364;2022-10-14T06:29:03;10.60;99.90
5041;DHT22;2539;52.568;13.364;2022-10-14T06:31:29;10.70;99.90
5041;DHT22;2539;52.568;13.364;2022-10-14T06:33:55;10.70;99.90
5041;DHT22;2539;52.568;13.364;2022-10-14T06:36:22;10.80;99.90
5041;DHT22;2539;52.568;13.364;2022-10-14T06:38:48;10.90;99.90
5041;DHT22;2539;52.568;13.364;2022-10-14T06:41:14;11.00;99.90
5041;DHT22;2539;52.568;13.364;2022-10-14T06:43:41;11.10;99.90
5041;DHT22;2539;52.568;13.364;2022-10-14T06:46:07;11.20;99.90
5041;DHT22;2539;52.568;13.364;2022-10-14T06:48:33;11.20;99.90
5041;DHT22;2539;52.568;13.364;2022-10-14T06:51:01;11.30;99.90
5041;DHT22;2539;52.568;13.364;2022-10-14T06:53:28;11.30;99.90
5041;DHT22;2539;52.568;13.364;2022-10-14T06:55:59;11.40;99.90
5041;DHT22;2539;52.568;13.364;2022-10-14T06:58:26;11.40;99.90
5041;DHT22;2539;52.568;13.364;2022-10-14T07:00:52;11.50;99.90
5041;DHT22;2539;52.568;13.364;2022-10-14T07:03:19;11.60;99.90
5041;DHT22;2539;52.568;13.364;2022-10-14T07:05:45;11.60;99.90
5041;DHT22;2539;52.568;13.364;2022-10-14T07:08:12;11.70;99.90
5041;DHT22;2539;52.568;13.364;2022-10-14T07:10:38;11.80;99.90
5041;DHT22;2539;52.568;13.364;2022-10-14T07:13:04;11.90;99.90
5041;DHT22;2539;52.568;13.364;2022-10-14T07:15:31;12.00;99.90
5041;DHT22;2539;52.568;13.364;2022-10-14T07:17:57;12.10;99.90
5041;DHT22;2539;52.568;13.364;2022-10-14T07:20:23;12.20;99.90
5041;DHT22;2539;52.568;13.364;2022-10-14T07:22:54;12.20;99.90
5041;DHT22;2539;52.568;13.364;2022-10-14T07:25:20;12.30;99.90
5041;DHT22;2539;52.568;13.364;2022-10-14T07:27:46;12.30;99.90
5041;DHT22;2539;52.568;13.364;2022-10-14T07:30:12;12.30;99.90
5041;DHT22;2539;52.568;13.364;2022-10-14T07:32:39;12.30;99.90
5041;DHT22;2539;52.568;13.364;2022-10-14T07:35:05;12.30;99.90
5041;DHT22;2539;52.568;13.364;2022-10-14T07:37:31;12.40;99.90
5041;DHT22;2539;52.568;13.364;2022-10-14T07:39:58;12.40;99.90
5041;DHT22;2539;52.568;13.364;2022-10-14T07:42:24;12.40;99.90
5041;DHT22;2539;52.568;13.364;2022-10-14T07:44:50;12.40;99.90
5041;DHT22;2539;52.568;13.364;2022-10-14T07:47:19;12.40;99.90
5041;DHT22;2539;52.568;13.364;2022-10-14T07:49:46;12.50;99.90
5041;DHT22;2539;52.568;13.364;2022-10-14T07:52:12;12.60;99.90
5041;DHT22;2539;52.568;13.364;2022-10-14T07:54:41;12.60;99.90
5041;DHT22;2539;52.568;13.364;2022-10-14T07:57:07;12.70;99.90
5041;DHT22;2539;52.568;13.364;2022-10-14T07:59:33;12.70;99.90
5041;DHT22;2539;52.568;13.364;2022-10-14T08:01:59;12.80;99.90
5041;DHT22;2539;52.568;13.364;2022-10-14T08:04:26;12.90;99.90
5041;DHT22;2539;52.568;13.364;2022-10-14T08:06:52;12.90;99.90
5041;DHT22;2539;52.568;13.364;2022-10-14T08:09:19;13.00;99.90
5041;DHT22;2539;52.568;13.364;2022-10-14T08:11:45;13.10;99.90
5041;DHT22;2539;52.568;13.364;2022-10-14T08:14:13;13.20;99.90
5041;DHT22;2539;52.568;13.364;2022-10-14T08:16:39;13.20;99.90
5041;DHT22;2539;52.568;13.364;2022-10-14T08:19:08;13.20;99.90
5041;DHT22;2539;52.568;13.364;2022-10-14T08:21:34;13.20;99.90
5041;DHT22;2539;52.568;13.364;2022-10-14T08:24:00;13.10;99.90
5041;DHT22;2539;52.568;13.364;2022-10-14T08:29:00;12.90;99.90
5041;DHT22;2539;52.568;13.364;2022-10-14T08:31:27;12.80;99.90
5041;DHT22;2539;52.568;13.364;2022-10-14T08:33:54;12.80;99.90
5041;DHT22;2539;52.568;13.364;2022-10-14T08:36:20;12.90;99.90
5041;DHT22;2539;52.568;13.364;2022-10-14T08:38:48;12.90;99.90
5041;DHT22;2539;52.568;13.364;2022-10-14T08:41:24;13.00;99.90
5041;DHT22;2539;52.568;13.364;2022-10-14T08:44:10;13.00;99.90
5041;DHT22;2539;52.568;13.364;2022-10-14T08:46:57;13.10;99.90
5041;DHT22;2539;52.568;13.364;2022-10-14T08:49:59;13.20;99.90
5041;DHT22;2539;52.568;13.364;2022-10-14T08:52:37;13.50;99.90
5041;DHT22;2539;52.568;13.364;2022-10-14T08:55:26;13.80;99.90
5041;DHT22;2539;52.568;13.364;2022-10-14T08:58:00;14.10;99.90
5041;DHT22;2539;52.568;13.364;2022-10-14T09:00:28;14.40;99.90
5041;DHT22;2539;52.568;13.364;2022-10-14T09:02:57;14.70;99.90
5041;DHT22;2539;52.568;13.364;2022-10-14T09:05:25;15.10;99.90
5041;DHT22;2539;52.568;13.364;2022-10-14T09:07:54;15.30;99.90
5041;DHT22;2539;52.568;13.364;2022-10-14T09:10:32;15.40;99.90
5041;DHT22;2539;52.568;13.364;2022-10-14T09:13:14;15.50;99.90
5041;DHT22;2539;52.568;13.364;2022-10-14T09:15:45;15.40;99.90
5041;DHT22;2539;52.568;13.364;2022-10-14T09:18:21;15.40;99.90
5041;DHT22;2539;52.568;13.364;2022-10-14T09:20:48;15.50;99.90
5041;DHT22;2539;52.568;13.364;2022-10-14T09:23:22;15.50;99.90
5041;DHT22;2539;52.568;13.364;2022-10-14T09:26:07;15.60;99.90
5041;DHT22;2539;52.568;13.364;2022-10-14T09:28:37;15.70;99.90
5041;DHT22;2539;52.568;13.364;2022-10-14T09:31:09;15.70;99.90
5041;DHT22;2539;52.568;13.364;2022-10-14T09:33:35;15.70;99.90
5041;DHT22;2539;52.568;13.364;2022-10-14T09:36:19;15.60;99.90
5041;DHT22;2539;52.568;13.364;2022-10-14T09:38:47;15.50;99.90
5041;DHT22;2539;52.568;13.364;2022-10-14T09:41:20;15.40;99.90
5041;DHT22;2539;52.568;13.364;2022-10-14T09:44:17;15.50;99.90
5041;DHT22;2539;52.568;13.364;2022-10-14T09:46:50;15.50;99.90
5041;DHT22;2539;52.568;13.364;2022-10-14T09:49:20;15.50;99.90
5041;DHT22;2539;52.568;13.364;2022-10-14T09:51:51;15.60;99.90
5041;DHT22;2539;52.568;13.364;2022-10-14T09:54:23;15.50;99.90
5041;DHT22;2539;52.568;13.364;2022-10-14T09:56:59;15.40;99.90
5041;DHT22;2539;52.568;13.364;2022-10-14T09:59:27;15.50;99.90
5041;DHT22;2539;52.568;13.364;2022-10-14T10:01:56;15.70;99.90
5041;DHT22;2539;52.568;13.364;2022-10-14T10:04:39;16.00;99.90
5041;DHT22;2539;52.568;13.364;2022-10-14T10:07:24;16.10;99.90
5041;DHT22;2539;52.568;13.364;2022-10-14T10:09:56;16.20;99.90
5041;DHT22;2539;52.568;13.364;2022-10-14T10:12:30;16.10;99.90
5041;DHT22;2539;52.568;13.364;2022-10-14T10:15:05;16.00;99.90
5041;DHT22;2539;52.568;13.364;2022-10-14T10:17:38;15.90;99.90
5041;DHT22;2539;52.568;13.364;2022-10-14T10:20:11;15.90;99.90
5041;DHT22;2539;52.568;13.364;2022-10-14T10:22:42;15.90;99.90
5041;DHT22;2539;52.568;13.364;2022-10-14T10:27:38;15.60;99.90
5041;DHT22;2539;52.568;13.364;2022-10-14T10:35:43;16.00;99.90
5041;DHT22;2539;52.568;13.364;2022-10-14T10:38:35;16.10;99.90
5041;DHT22;2539;52.568;13.364;2022-10-14T10:41:39;16.30;99.90
5041;DHT22;2539;52.568;13.364;2022-10-14T10:44:17;16.50;99.90
5041;DHT22;2539;52.568;13.364;2022-10-14T10:47:13;16.60;99.90
5041;DHT22;2539;52.568;13.364;2022-10-14T10:52:32;16.90;99.90
5041;DHT22;2539;52.568;13.364;2022-10-14T10:55:21;16.90;99.90
5041;DHT22;2539;52.568;13.364;2022-10-14T11:00:34;17.10;99.90
5041;DHT22;2539;52.568;13.364;2022-10-14T11:03:28;17.10;99.90
5041;DHT22;2539;52.568;13.364;2022-10-14T11:08:57;17.30;99.90
5041;DHT22;2539;52.568;13.364;2022-10-14T11:11:59;17.50;99.90
5041;DHT22;2539;52.568;13.364;2022-10-14T11:14:51;17.60;99.90
5041;DHT22;2539;52.568;13.364;2022-10-14T11:17:55;17.60;99.90
5041;DHT22;2539;52.568;13.364;2022-10-14T11:24:02;17.60;99.90
5041;DHT22;2539;52.568;13.364;2022-10-14T11:26:51;17.60;99.90
5041;DHT22;2539;52.568;13.364;2022-10-14T11:29:35;17.70;99.90
5041;DHT22;2539;52.568;13.364;2022-10-14T11:32:30;17.60;99.90
5041;DHT22;2539;52.568;13.364;2022-10-14T11:38:04;17.60;99.90
5041;DHT22;2539;52.568;13.364;2022-10-14T11:40:44;17.70;99.90
5041;DHT22;2539;52.568;13.364;2022-10-14T11:43:35;17.80;99.90
5041;DHT22;2539;52.568;13.364;2022-10-14T11:46:14;17.60;99.90
5041;DHT22;2539;52.568;13.364;2022-10-14T11:49:04;17.50;99.90
5041;DHT22;2539;52.568;13.364;2022-10-14T11:51:36;17.30;99.90
5041;DHT22;2539;52.568;13.364;2022-10-14T11:54:16;17.10;99.90
5041;DHT22;2539;52.568;13.364;2022-10-14T12:03:05;17.50;99.90
5041;DHT22;2539;52.568;13.364;2022-10-14T12:05:41;17.30;99.90
5041;DHT22;2539;52.568;13.364;2022-10-14T12:08:44;17.00;99.90
5041;DHT22;2539;52.568;13.364;2022-10-14T12:11:34;16.80;99.90
5041;DHT22;2539;52.568;13.364;2022-10-14T12:14:27;16.80;99.90
5041;DHT22;2539;52.568;13.364;2022-10-14T12:16:55;16.90;99.90
5041;DHT22;2539;52.568;13.364;2022-10-14T12:19:25;17.10;99.90
5041;DHT22;2539;52.568;13.364;2022-10-14T12:22:08;17.30;99.90
5041;DHT22;2539;52.568;13.364;2022-10-14T12:24:44;17.40;99.90
5041;DHT22;2539;52.568;13.364;2022-10-14T12:27:13;17.60;99.90
5041;DHT22;2539;52.568;13.364;2022-10-14T12:29:42;17.60;99.90
5041;DHT22;2539;52.568;13.364;2022-10-14T12:34:42;17.50;99.90
5041;DHT22;2539;52.568;13.364;2022-10-14T12:42:37;17.60;99.90
5041;DHT22;2539;52.568;13.364;2022-10-14T12:45:20;17.60;99.90
5041;DHT22;2539;52.568;13.364;2022-10-14T12:48:33;17.70;99.90
5041;DHT22;2539;52.568;13.364;2022-10-14T12:51:14;17.80;99.90
5041;DHT22;2539;52.568;13.364;2022-10-14T12:53:55;17.70;99.90
5041;DHT22;2539;52.568;13.364;2022-10-14T12:56:42;17.50;99.90
5041;DHT22;2539;52.568;13.364;2022-10-14T12:59:40;17.40;99.90
5041;DHT22;2539;52.568;13.364;2022-10-14T13:02:37;17.40;99.90
5041;DHT22;2539;52.568;13.364;2022-10-14T13:05:23;17.70;99.90
5041;DHT22;2539;52.568;13.364;2022-10-14T13:21:26;18.10;99.90
5041;DHT22;2539;52.568;13.364;2022-10-14T13:23:52;18.10;99.90
5041;DHT22;2539;52.568;13.364;2022-10-14T13:26:38;18.00;99.90
5041;DHT22;2539;52.568;13.364;2022-10-14T13:32:10;17.90;99.90
5041;DHT22;2539;52.568;13.364;2022-10-14T13:34:55;17.80;99.90
5041;DHT22;2539;52.568;13.364;2022-10-14T13:37:36;17.60;99.90
5041;DHT22;2539;52.568;13.364;2022-10-14T13:45:49;17.30;99.90
5041;DHT22;2539;52.568;13.364;2022-10-14T13:48:24;17.20;99.90
5041;DHT22;2539;52.568;13.364;2022-10-14T13:51:07;17.20;99.90
5041;DHT22;2539;52.568;13.364;2022-10-14T13:53:49;17.20;99.90
5041;DHT22;2539;52.568;13.364;2022-10-14T13:56:21;17.30;99.90
5041;DHT22;2539;52.568;13.364;2022-10-14T13:58:48;17.30;99.90
5041;DHT22;2539;52.568;13.364;2022-10-14T14:01:17;17.40;99.90
5041;DHT22;2539;52.568;13.364;2022-10-14T14:03:49;17.40;99.90
5041;DHT22;2539;52.568;13.364;2022-10-14T14:06:17;17.50;99.90
5041;DHT22;2539;52.568;13.364;2022-10-14T14:09:05;17.60;99.90
5041;DHT22;2539;52.568;13.364;2022-10-14T14:11:35;17.60;99.90
5041;DHT22;2539;52.568;13.364;2022-10-14T14:14:16;17.50;99.90
5041;DHT22;2539;52.568;13.364;2022-10-14T14:16:47;17.40;99.90
5041;DHT22;2539;52.568;13.364;2022-10-14T14:19:31;17.40;99.90
5041;DHT22;2539;52.568;13.364;2022-10-14T14:27:45;17.20;99.90
5041;DHT22;2539;52.568;13.364;2022-10-14T14:30:27;17.10;99.90
5041;DHT22;2539;52.568;13.364;2022-10-14T14:32:57;17.10;99.90
5041;DHT22;2539;52.568;13.364;2022-10-14T14:35:24;17.00;99.90
5041;DHT22;2539;52.568;13.364;2022-10-14T14:37:51;17.00;99.90
5041;DHT22;2539;52.568;13.364;2022-10-14T14:40:23;16.90;99.90
5041;DHT22;2539;52.568;13.364;2022-10-14T14:42:52;16.90;99.90
5041;DHT22;2539;52.568;13.364;2022-10-14T14:47:53;16.80;99.90
5041;DHT22;2539;52.568;13.364;2022-10-14T14:50:26;16.70;99.90
5041;DHT22;2539;52.568;13.364;2022-10-14T14:52:54;16.70;99.90
5041;DHT22;2539;52.568;13.364;2022-10-14T14:55:42;16.70;99.90
5041;DHT22;2539;52.568;13.364;2022-10-14T14:58:20;16.90;99.90
5041;DHT22;2539;52.568;13.364;2022-10-14T15:00:48;17.10;99.90
5041;DHT22;2539;52.568;13.364;2022-10-14T15:03:16;17.50;99.90
5041;DHT22;2539;52.568;13.364;2022-10-14T15:05:51;17.70;99.90
5041;DHT22;2539;52.568;13.364;2022-10-14T15:08:22;17.70;99.90
5041;DHT22;2539;52.568;13.364;2022-10-14T15:10:49;17.50;99.90
5041;DHT22;2539;52.568;13.364;2022-10-14T15:13:28;17.20;99.90
5041;DHT22;2539;52.568;13.364;2022-10-14T15:15:55;16.80;99.90
5041;DHT22;2539;52.568;13.364;2022-10-14T15:18:26;16.50;99.90
5041;DHT22;2539;52.568;13.364;2022-10-14T15:21:13;16.20;99.90
5041;DHT22;2539;52.568;13.364;2022-10-14T15:23:57;16.00;99.90
5041;DHT22;2539;52.568;13.364;2022-10-14T15:26:33;15.80;99.90
5041;DHT22;2539;52.568;13.364;2022-10-14T15:29:05;15.60;99.90
5041;DHT22;2539;52.568;13.364;2022-10-14T15:31:38;15.60;99.90
5041;DHT22;2539;52.568;13.364;2022-10-14T15:34:15;15.40;99.90
5041;DHT22;2539;52.568;13.364;2022-10-14T15:36:42;15.30;99.90
5041;DHT22;2539;52.568;13.364;2022-10-14T15:39:11;15.20;99.90
5041;DHT22;2539;52.568;13.364;2022-10-14T15:41:39;15.10;99.90
5041;DHT22;2539;52.568;13.364;2022-10-14T15:44:06;15.10;99.90
5041;DHT22;2539;52.568;13.364;2022-10-14T15:46:34;15.00;99.90
5041;DHT22;2539;52.568;13.364;2022-10-14T15:49:26;15.00;99.90
5041;DHT22;2539;52.568;13.364;2022-10-14T15:51:52;14.90;99.90
5041;DHT22;2539;52.568;13.364;2022-10-14T15:54:18;14.90;99.90
5041;DHT22;2539;52.568;13.364;2022-10-14T15:56:44;14.90;99.90
5041;DHT22;2539;52.568;13.364;2022-10-14T15:59:13;14.90;99.90
5041;DHT22;2539;52.568;13.364;2022-10-14T16:01:41;14.90;99.90
5041;DHT22;2539;52.568;13.364;2022-10-14T16:04:15;14.80;99.90
5041;DHT22;2539;52.568;13.364;2022-10-14T16:06:42;14.70;99.90
5041;DHT22;2539;52.568;13.364;2022-10-14T16:09:08;14.70;99.90
5041;DHT22;2539;52.568;13.364;2022-10-14T16:11:34;14.60;99.90
5041;DHT22;2539;52.568;13.364;2022-10-14T16:14:01;14.60;99.90
5041;DHT22;2539;52.568;13.364;2022-10-14T16:16:32;14.50;99.90
5041;DHT22;2539;52.568;13.364;2022-10-14T16:19:00;14.40;99.90
5041;DHT22;2539;52.568;13.364;2022-10-14T16:21:27;14.40;99.90
5041;DHT22;2539;52.568;13.364;2022-10-14T16:23:57;14.30;99.90
5041;DHT22;2539;52.568;13.364;2022-10-14T16:26:24;14.20;99.90
5041;DHT22;2539;52.568;13.364;2022-10-14T16:28:51;14.20;99.90
5041;DHT22;2539;52.568;13.364;2022-10-14T16:31:17;14.10;99.90
5041;DHT22;2539;52.568;13.364;2022-10-14T16:33:44;14.00;99.90
5041;DHT22;2539;52.568;13.364;2022-10-14T16:36:13;14.00;99.90
5041;DHT22;2539;52.568;13.364;2022-10-14T16:38:39;13.90;99.90
5041;DHT22;2539;52.568;13.364;2022-10-14T16:41:06;14.00;99.90
5041;DHT22;2539;52.568;13.364;2022-10-14T16:43:35;14.00;99.90
5041;DHT22;2539;52.568;13.364;2022-10-14T16:46:02;14.10;99.90
5041;DHT22;2539;52.568;13.364;2022-10-14T16:48:29;14.10;99.90
5041;DHT22;2539;52.568;13.364;2022-10-14T16:50:56;14.20;99.90
5041;DHT22;2539;52.568;13.364;2022-10-14T16:53:22;14.20;99.90
5041;DHT22;2539;52.568;13.364;2022-10-14T16:56:18;14.20;99.90
5041;DHT22;2539;52.568;13.364;2022-10-14T16:59:04;14.30;99.90
5041;DHT22;2539;52.568;13.364;2022-10-14T17:01:32;14.30;99.90
5041;DHT22;2539;52.568;13.364;2022-10-14T17:03:59;14.30;99.90
5041;DHT22;2539;52.568;13.364;2022-10-14T17:06:25;14.20;99.90
5041;DHT22;2539;52.568;13.364;2022-10-14T17:08:52;14.20;99.90
5041;DHT22;2539;52.568;13.364;2022-10-14T17:11:18;14.10;99.90
5041;DHT22;2539;52.568;13.364;2022-10-14T17:13:45;14.10;99.90
5041;DHT22;2539;52.568;13.364;2022-10-14T17:16:12;14.10;99.90
5041;DHT22;2539;52.568;13.364;2022-10-14T17:18:38;14.10;99.90
5041;DHT22;2539;52.568;13.364;2022-10-14T17:21:09;14.20;99.90
5041;DHT22;2539;52.568;13.364;2022-10-14T17:23:40;14.20;99.90
5041;DHT22;2539;52.568;13.364;2022-10-14T17:26:09;14.20;99.90
5041;DHT22;2539;52.568;13.364;2022-10-14T17:28:40;14.30;99.90
5041;DHT22;2539;52.568;13.364;2022-10-14T17:31:08;14.40;99.90
5041;DHT22;2539;52.568;13.364;2022-10-14T17:33:35;14.40;99.90
5041;DHT22;2539;52.568;13.364;2022-10-14T17:36:01;14.40;99.90
5041;DHT22;2539;52.568;13.364;2022-10-14T17:38:28;14.40;99.90
5041;DHT22;2539;52.568;13.364;2022-10-14T17:41:05;14.30;99.90
5041;DHT22;2539;52.568;13.364;2022-10-14T17:43:33;14.30;99.90
5041;DHT22;2539;52.568;13.364;2022-10-14T17:46:04;14.40;99.90
5041;DHT22;2539;52.568;13.364;2022-10-14T17:48:31;14.40;99.90